Time;durP1;ratioP1;P1;durP2;ratioP2;P2;SDS_P1;SDS_P2;PMS_P1;PMS_P2;Temp;Humidity;BMP_temperature;BMP_pressure;BME280_temperature;BME280_humidity;BME280_pressure;Samples;Min_cycle;Max_cycle;Signal;HPM_P1;HPM_P2
2023/08/01 00:02:19;;;;;;;73.55;69.20;;;15.90;95.80;;;;;;5076660;28;20225;-88
2023/08/01 00:04:45;;;;;;;75.40;70.85;;;15.80;95.80;;;;;;5075191;28;20191;-90
2023/08/01 00:07:10;;;;;;;75.32;70.88;;;15.80;95.80;;;;;;5075946;28;20221;-89
2023/08/01 00:09:36;;;;;;;72.88;68.55;;;15.70;95.80;;;;;;5075650;28;20202;-89
2023/08/01 00:12:01;;;;;;;76.32;71.93;;;15.70;95.80;;;;;;5076114;28;20604;-89
2023/08/01 00:14:27;;;;;;;74.65;70.45;;;15.70;95.90;;;;;;5076198;28;20698;-90
2023/08/01 00:16:52;;;;;;;77.95;73.25;;;15.70;95.90;;;;;;5075895;28;20671;-89
2023/08/01 00:19:18;;;;;;;78.93;74.53;;;15.70;95.90;;;;;;5074945;28;20183;-89
2023/08/01 00:21:44;;;;;;;78.70;73.93;;;15.70;95.90;;;;;;5075858;28;20187;-89
2023/08/01 00:24:09;;;;;;;79.43;74.55;;;15.70;95.90;;;;;;5074580;28;20202;-90
2023/08/01 00:26:35;;;;;;;82.28;76.57;;;15.70;95.90;;;;;;5075888;28;20176;-89
2023/08/01 00:29:01;;;;;;;79.25;74.20;;;15.70;96.00;;;;;;5075849;28;20658;-89
2023/08/01 00:31:26;;;;;;;78.15;72.78;;;15.80;96.00;;;;;;5075485;28;20214;-90
2023/08/01 00:33:52;;;;;;;80.88;75.85;;;15.80;96.00;;;;;;5075636;28;20275;-89
2023/08/01 00:36:17;;;;;;;83.13;78.40;;;15.80;96.10;;;;;;5075326;28;20183;-89
2023/08/01 00:38:43;;;;;;;84.75;79.55;;;15.80;96.10;;;;;;5075753;28;20179;-90
2023/08/01 00:41:09;;;;;;;85.72;80.63;;;15.80;96.10;;;;;;5075985;28;20163;-90
2023/08/01 00:43:35;;;;;;;88.25;83.05;;;15.70;96.10;;;;;;5075742;28;20168;-90
2023/08/01 00:46:03;;;;;;;90.78;85.60;;;15.80;96.10;;;;;;5074373;28;20176;-90
2023/08/01 00:48:30;;;;;;;95.07;89.22;;;15.80;96.10;;;;;;5075567;28;20186;-90
2023/08/01 00:50:57;;;;;;;100.88;94.97;;;15.70;96.10;;;;;;5075263;28;20178;-90
2023/08/01 00:53:23;;;;;;;100.68;95.05;;;15.60;96.10;;;;;;5075428;28;20199;-90
2023/08/01 00:55:52;;;;;;;103.95;97.95;;;15.70;96.10;;;;;;5074163;28;20225;-90
2023/08/01 00:58:17;;;;;;;101.63;96.03;;;15.60;96.10;;;;;;5074661;28;20191;-91
2023/08/01 01:00:43;;;;;;;101.15;95.45;;;15.60;96.10;;;;;;5075815;28;20221;-90
2023/08/01 01:03:08;;;;;;;104.38;97.88;;;15.60;96.10;;;;;;5075339;28;20163;-90
2023/08/01 01:05:38;;;;;;;104.65;98.75;;;15.60;96.10;;;;;;5075240;28;20258;-90
2023/08/01 01:08:04;;;;;;;108.85;102.65;;;15.60;96.20;;;;;;5074604;28;20171;-90
2023/08/01 01:10:30;;;;;;;105.38;99.32;;;15.60;96.20;;;;;;5074679;28;20250;-89
2023/08/01 01:12:56;;;;;;;101.47;95.30;;;15.60;96.20;;;;;;5075208;28;20179;-90
2023/08/01 01:15:21;;;;;;;102.10;96.15;;;15.60;96.20;;;;;;5074609;28;20272;-90
2023/08/01 01:17:47;;;;;;;101.65;95.65;;;15.70;96.30;;;;;;5074290;28;20219;-90
2023/08/01 01:20:12;;;;;;;98.22;91.90;;;15.70;96.30;;;;;;5074208;28;20212;-89
2023/08/01 01:22:40;;;;;;;93.90;87.65;;;15.70;96.30;;;;;;5075516;28;20182;-90
2023/08/01 01:25:08;;;;;;;89.88;84.40;;;15.80;96.30;;;;;;5074777;28;20658;-89
2023/08/01 01:27:35;;;;;;;89.20;83.45;;;15.80;96.30;;;;;;5073101;28;20176;-90
2023/08/01 01:30:03;;;;;;;87.93;82.43;;;15.80;96.40;;;;;;5074188;28;20175;-89
2023/08/01 01:32:29;;;;;;;86.72;81.18;;;15.90;96.40;;;;;;5074377;28;20213;-89
2023/08/01 01:34:54;;;;;;;86.60;81.28;;;15.90;96.50;;;;;;5074326;28;20203;-89
2023/08/01 01:37:20;;;;;;;84.95;79.03;;;16.00;96.50;;;;;;5072752;28;20202;-89
2023/08/01 01:39:45;;;;;;;85.80;80.22;;;16.00;96.50;;;;;;5073959;28;20171;-89
2023/08/01 01:42:13;;;;;;;82.75;77.10;;;16.00;96.50;;;;;;5073981;28;20254;-89
2023/08/01 01:44:38;;;;;;;84.53;78.82;;;16.10;96.50;;;;;;5072746;28;20196;-89
2023/08/01 01:47:04;;;;;;;83.32;77.75;;;16.10;96.60;;;;;;5074043;28;20550;-89
2023/08/01 01:49:30;;;;;;;109.35;102.28;;;16.20;96.60;;;;;;5073977;28;20662;-89
2023/08/01 01:51:55;;;;;;;109.82;102.55;;;16.20;96.60;;;;;;5072491;28;20182;-89
2023/08/01 01:54:21;;;;;;;102.95;95.63;;;16.20;96.60;;;;;;5072702;28;20195;-89
2023/08/01 01:56:46;;;;;;;77.78;72.43;;;16.20;96.50;;;;;;5074180;28;20191;-89
2023/08/01 01:59:12;;;;;;;79.68;73.90;;;16.20;96.50;;;;;;5074036;28;20260;-89
2023/08/01 02:01:37;;;;;;;114.25;106.47;;;16.20;96.50;;;;;;5073702;28;20178;-89
2023/08/01 02:04:03;;;;;;;117.57;109.93;;;16.20;96.50;;;;;;5072373;28;20195;-89
2023/08/01 02:06:28;;;;;;;84.13;78.00;;;16.20;96.60;;;;;;5072436;28;20647;-89
2023/08/01 02:08:54;;;;;;;85.32;79.53;;;16.20;96.50;;;;;;5072570;28;20189;-89
2023/08/01 02:11:20;;;;;;;82.90;76.47;;;16.30;96.60;;;;;;5073688;28;20202;-88
2023/08/01 02:13:45;;;;;;;83.15;76.80;;;16.30;96.50;;;;;;5073840;28;20244;-88
2023/08/01 02:16:11;;;;;;;84.07;77.80;;;16.20;96.50;;;;;;5071939;28;20175;-89
2023/08/01 02:18:36;;;;;;;84.10;78.38;;;16.30;96.50;;;;;;5072544;28;20167;-88
2023/08/01 02:21:02;;;;;;;84.95;78.80;;;16.30;96.50;;;;;;5072219;28;20190;-89
2023/08/01 02:23:28;;;;;;;83.72;77.93;;;16.30;96.50;;;;;;5072007;28;20639;-88
2023/08/01 02:25:54;;;;;;;82.85;77.10;;;16.30;96.50;;;;;;5073101;28;20209;-88
2023/08/01 02:28:20;;;;;;;83.75;78.05;;;16.30;96.40;;;;;;5071970;28;20269;-88
2023/08/01 02:30:45;;;;;;;83.80;77.65;;;16.30;96.40;;;;;;5073399;28;20183;-88
2023/08/01 02:33:11;;;;;;;83.15;77.18;;;16.30;96.40;;;;;;5072817;28;20578;-88
2023/08/01 02:35:37;;;;;;;82.07;75.97;;;16.30;96.40;;;;;;5072286;28;20671;-88
2023/08/01 02:38:03;;;;;;;83.72;77.55;;;16.30;96.40;;;;;;5071949;28;20199;-88
2023/08/01 02:40:28;;;;;;;89.35;82.90;;;16.30;96.40;;;;;;5073766;28;20221;-88
2023/08/01 02:42:54;;;;;;;90.78;84.03;;;16.30;96.40;;;;;;5072238;28;20175;-89
2023/08/01 02:45:20;;;;;;;90.57;84.05;;;16.30;96.40;;;;;;5073186;28;20678;-89
2023/08/01 02:47:45;;;;;;;94.35;87.53;;;16.30;96.40;;;;;;5071800;28;20182;-88
2023/08/01 02:50:11;;;;;;;91.15;84.55;;;16.30;96.40;;;;;;5071995;28;20211;-89
2023/08/01 02:52:36;;;;;;;94.78;87.57;;;16.30;96.40;;;;;;5071851;28;20199;-89
2023/08/01 02:55:02;;;;;;;92.75;86.18;;;16.30;96.40;;;;;;5072129;28;20194;-88
2023/08/01 02:57:28;;;;;;;93.28;86.63;;;16.30;96.40;;;;;;5071884;28;20286;-88
2023/08/01 02:59:53;;;;;;;95.80;88.93;;;16.30;96.40;;;;;;5071890;28;20172;-87
2023/08/01 03:02:19;;;;;;;94.53;87.82;;;16.30;96.40;;;;;;5073186;28;20293;-88
2023/08/01 03:04:44;;;;;;;95.07;88.10;;;16.30;96.40;;;;;;5071878;28;20260;-88
2023/08/01 03:07:10;;;;;;;88.38;82.18;;;16.30;96.40;;;;;;5072694;28;20171;-88
2023/08/01 03:09:35;;;;;;;92.18;84.70;;;16.30;96.30;;;;;;5072937;28;20199;-88
2023/08/01 03:12:01;;;;;;;92.22;85.32;;;16.30;96.30;;;;;;5072860;28;20250;-88
2023/08/01 03:14:26;;;;;;;88.22;81.78;;;16.30;96.30;;;;;;5071585;28;20195;-89
2023/08/01 03:16:52;;;;;;;91.97;85.07;;;16.30;96.30;;;;;;5072733;28;20207;-89
2023/08/01 03:19:18;;;;;;;91.97;84.82;;;16.20;96.20;;;;;;5071772;28;20230;-88
2023/08/01 03:21:43;;;;;;;93.45;86.45;;;16.30;96.20;;;;;;5072739;28;20190;-89
2023/08/01 03:24:09;;;;;;;91.95;85.22;;;16.30;96.20;;;;;;5071675;28;20264;-88
2023/08/01 03:26:35;;;;;;;91.18;84.55;;;16.30;96.20;;;;;;5071358;28;20171;-88
2023/08/01 03:29:01;;;;;;;91.43;84.60;;;16.20;96.20;;;;;;5071377;28;20180;-89
2023/08/01 03:31:27;;;;;;;93.25;86.20;;;16.20;96.20;;;;;;5076371;28;20678;-88
2023/08/01 03:33:53;;;;;;;92.57;85.38;;;16.20;96.20;;;;;;5076317;28;20233;-88
2023/08/01 03:36:18;;;;;;;92.32;85.65;;;16.30;96.10;;;;;;5076248;28;20207;-88
2023/08/01 03:38:44;;;;;;;91.10;84.30;;;16.30;96.10;;;;;;5076070;28;20692;-88
2023/08/01 03:41:10;;;;;;;90.10;83.43;;;16.30;96.10;;;;;;5074817;28;20171;-88
2023/08/01 03:43:35;;;;;;;93.55;86.85;;;16.30;96.10;;;;;;5075853;28;20199;-88
2023/08/01 03:46:01;;;;;;;93.88;87.13;;;16.20;96.10;;;;;;5074732;28;20258;-89
2023/08/01 03:48:26;;;;;;;96.25;89.57;;;16.30;96.10;;;;;;5075012;28;20260;-88
2023/08/01 03:50:52;;;;;;;93.55;86.85;;;16.30;96.10;;;;;;5075924;28;20178;-88
2023/08/01 03:53:17;;;;;;;94.82;87.93;;;16.30;96.00;;;;;;5075788;28;20194;-89
2023/08/01 03:55:44;;;;;;;93.88;87.35;;;16.30;96.00;;;;;;5075789;28;20560;-88
2023/08/01 03:58:10;;;;;;;92.80;86.28;;;16.30;95.90;;;;;;5075742;28;20218;-88
2023/08/01 04:00:35;;;;;;;76.00;69.55;;;16.30;95.80;;;;;;5076051;28;20214;-89
2023/08/01 04:03:01;;;;;;;81.00;74.72;;;16.30;95.80;;;;;;5074429;28;20171;-88
2023/08/01 04:05:27;;;;;;;78.85;72.82;;;16.30;95.80;;;;;;5074329;28;20194;-88
2023/08/01 04:07:56;;;;;;;82.00;75.97;;;16.30;95.70;;;;;;5075664;28;20171;-88
2023/08/01 04:10:22;;;;;;;85.10;78.95;;;16.20;95.70;;;;;;5075809;28;20242;-89
2023/08/01 04:12:47;;;;;;;83.60;77.60;;;16.20;95.70;;;;;;5074243;28;20218;-88
2023/08/01 04:15:13;;;;;;;82.30;76.35;;;16.20;95.70;;;;;;5075336;28;20609;-88
2023/08/01 04:17:38;;;;;;;80.78;74.57;;;16.20;95.80;;;;;;5075537;28;20202;-89
2023/08/01 04:20:05;;;;;;;81.80;75.93;;;16.20;95.80;;;;;;5074578;28;20171;-88
2023/08/01 04:22:30;;;;;;;79.57;73.90;;;16.20;95.80;;;;;;5074145;28;20195;-88
2023/08/01 04:24:56;;;;;;;78.43;72.90;;;16.20;95.80;;;;;;5073876;28;20191;-89
2023/08/01 04:27:21;;;;;;;78.68;72.78;;;16.20;95.80;;;;;;5075082;28;20250;-88
2023/08/01 04:29:48;;;;;;;78.00;72.60;;;16.20;95.80;;;;;;5073901;28;20186;-88
2023/08/01 04:32:14;;;;;;;78.90;73.40;;;16.10;95.60;;;;;;5075304;28;20197;-88
2023/08/01 04:34:41;;;;;;;80.05;74.05;;;16.20;95.60;;;;;;5074050;28;20199;-89
2023/08/01 04:37:07;;;;;;;80.28;74.10;;;16.10;95.60;;;;;;5074054;28;20282;-89
2023/08/01 04:39:32;;;;;;;79.95;74.03;;;16.20;95.60;;;;;;5075073;28;20191;-88
2023/08/01 04:41:58;;;;;;;79.65;74.10;;;16.10;95.60;;;;;;5073028;28;20209;-89
2023/08/01 04:44:23;;;;;;;82.07;76.30;;;16.10;95.50;;;;;;5074993;28;20202;-89
2023/08/01 04:46:49;;;;;;;84.38;77.75;;;16.10;95.50;;;;;;5073784;28;20183;-88
2023/08/01 04:49:14;;;;;;;84.32;78.35;;;16.10;95.50;;;;;;5074295;28;20172;-89
2023/08/01 04:51:40;;;;;;;83.30;77.40;;;16.10;95.50;;;;;;5073809;28;20198;-89
2023/08/01 04:54:06;;;;;;;80.32;74.97;;;16.10;95.50;;;;;;5074080;28;20199;-89
2023/08/01 04:56:31;;;;;;;81.38;75.60;;;16.10;95.60;;;;;;5074597;28;20646;-89
2023/08/01 04:58:57;;;;;;;85.53;79.38;;;16.10;95.50;;;;;;5074582;28;20251;-89
2023/08/01 05:01:22;;;;;;;84.75;79.00;;;16.10;95.50;;;;;;5073254;28;20305;-88
2023/08/01 05:03:48;;;;;;;84.30;78.22;;;16.00;95.40;;;;;;5073231;28;20221;-88
2023/08/01 05:06:13;;;;;;;83.15;77.13;;;16.10;95.40;;;;;;5074464;28;20241;-90
2023/08/01 05:08:39;;;;;;;79.80;74.30;;;16.00;95.30;;;;;;5074484;28;20498;-88
2023/08/01 05:11:04;;;;;;;79.80;74.05;;;16.00;95.30;;;;;;5073476;28;20673;-89
2023/08/01 05:13:30;;;;;;;79.68;74.38;;;16.00;95.30;;;;;;5072918;28;20722;-88
2023/08/01 05:15:55;;;;;;;81.88;76.13;;;16.00;95.20;;;;;;5074421;28;20167;-88
2023/08/01 05:18:21;;;;;;;83.60;77.75;;;16.00;95.20;;;;;;5074017;28;20199;-88
2023/08/01 05:20:46;;;;;;;84.28;77.88;;;16.00;95.10;;;;;;5074319;28;20183;-88
2023/08/01 05:23:12;;;;;;;83.65;77.55;;;16.00;95.10;;;;;;5073253;28;20202;-89
2023/08/01 05:25:37;;;;;;;81.55;76.05;;;16.00;95.10;;;;;;5072694;28;20286;-88
2023/08/01 05:28:03;;;;;;;84.03;78.10;;;16.00;95.10;;;;;;5072837;28;20220;-88
2023/08/01 05:30:28;;;;;;;80.45;74.22;;;16.00;95.10;;;;;;5074053;28;20171;-88
2023/08/01 05:32:54;;;;;;;107.45;99.95;;;16.00;95.10;;;;;;5072932;28;20171;-89
2023/08/01 05:35:21;;;;;;;86.20;80.30;;;16.00;95.00;;;;;;5072664;28;20217;-89
2023/08/01 05:37:46;;;;;;;85.45;79.10;;;16.10;95.00;;;;;;5072689;28;20199;-88
2023/08/01 05:40:12;;;;;;;76.80;71.38;;;16.10;95.00;;;;;;5073769;28;20178;-88
2023/08/01 05:42:37;;;;;;;77.88;72.40;;;16.10;95.00;;;;;;5074342;28;20171;-88
2023/08/01 05:45:04;;;;;;;83.80;78.00;;;16.20;95.00;;;;;;5073564;28;20199;-88
2023/08/01 05:47:29;;;;;;;79.35;74.13;;;16.10;94.90;;;;;;5072555;28;20226;-88
2023/08/01 05:49:55;;;;;;;72.47;67.25;;;16.10;94.90;;;;;;5073625;28;20261;-88
2023/08/01 05:52:20;;;;;;;71.97;66.88;;;16.10;94.90;;;;;;5073562;28;20168;-88
2023/08/01 05:54:46;;;;;;;74.43;68.97;;;16.10;94.80;;;;;;5071664;28;20278;-88
2023/08/01 05:57:12;;;;;;;71.82;67.15;;;16.10;94.80;;;;;;5072214;28;20242;-89
2023/08/01 05:59:37;;;;;;;71.78;66.88;;;16.20;94.80;;;;;;5072485;28;20178;-89
2023/08/01 06:02:03;;;;;;;76.18;70.93;;;16.20;94.70;;;;;;5073166;28;20278;-89
2023/08/01 06:04:28;;;;;;;69.68;64.80;;;16.20;94.70;;;;;;5073441;28;20195;-88
2023/08/01 06:06:54;;;;;;;67.22;62.08;;;16.20;94.60;;;;;;5073378;28;20250;-88
2023/08/01 06:09:20;;;;;;;65.60;60.85;;;16.20;94.60;;;;;;5072240;28;20221;-89
2023/08/01 06:11:45;;;;;;;63.47;59.00;;;16.30;94.60;;;;;;5073490;28;20168;-88
2023/08/01 06:14:11;;;;;;;65.38;60.70;;;16.30;94.50;;;;;;5072485;28;20207;-88
2023/08/01 06:16:36;;;;;;;63.88;59.15;;;16.30;94.50;;;;;;5073380;28;20232;-89
2023/08/01 06:19:02;;;;;;;61.80;57.60;;;16.20;94.40;;;;;;5073441;28;20174;-88
2023/08/01 06:21:28;;;;;;;67.32;62.75;;;16.30;94.50;;;;;;5071933;28;20195;-88
2023/08/01 06:23:53;;;;;;;67.57;63.00;;;16.20;94.10;;;;;;5071983;28;20191;-88
2023/08/01 06:26:19;;;;;;;65.82;61.33;;;16.20;94.10;;;;;;5072000;28;20182;-89
2023/08/01 06:28:44;;;;;;;65.60;61.13;;;16.20;94.00;;;;;;5072045;28;20250;-89
2023/08/01 06:31:10;;;;;;;68.70;63.45;;;16.20;94.00;;;;;;5073254;28;20190;-89
2023/08/01 06:33:35;;;;;;;65.45;61.17;;;16.20;94.20;;;;;;5072097;28;20365;-89
2023/08/01 06:36:01;;;;;;;65.68;61.28;;;16.20;94.00;;;;;;5073291;28;20171;-88
2023/08/01 06:38:27;;;;;;;66.65;61.75;;;16.20;94.00;;;;;;5071907;28;20705;-88
2023/08/01 06:40:52;;;;;;;63.90;59.80;;;16.20;93.90;;;;;;5073159;28;20534;-89
2023/08/01 06:43:18;;;;;;;66.65;61.80;;;16.30;93.60;;;;;;5073387;28;20172;-89
2023/08/01 06:45:43;;;;;;;63.72;59.05;;;16.40;93.60;;;;;;5073346;28;20203;-88
2023/08/01 06:48:09;;;;;;;65.88;61.40;;;16.60;93.80;;;;;;5071847;28;20617;-89
2023/08/01 06:50:35;;;;;;;64.38;59.80;;;16.70;93.70;;;;;;5073192;28;20602;-88
2023/08/01 06:53:01;;;;;;;66.68;61.90;;;16.60;93.30;;;;;;5072716;28;20187;-89
2023/08/01 06:55:27;;;;;;;66.78;61.92;;;16.60;93.10;;;;;;5073365;28;20284;-89
2023/08/01 06:57:53;;;;;;;70.07;65.25;;;16.60;93.00;;;;;;5073364;28;20207;-89
2023/08/01 07:00:18;;;;;;;72.22;66.50;;;16.70;93.10;;;;;;5073135;28;20643;-89
2023/08/01 07:02:44;;;;;;;67.35;62.72;;;16.60;92.90;;;;;;5071775;28;20171;-88
2023/08/01 07:05:09;;;;;;;68.20;63.53;;;16.50;92.60;;;;;;5073796;28;20282;-89
2023/08/01 07:07:35;;;;;;;65.93;61.53;;;16.40;92.80;;;;;;5076133;28;20167;-89
2023/08/01 07:10:00;;;;;;;64.68;60.03;;;16.50;92.90;;;;;;5077387;28;20176;-89
2023/08/01 07:12:26;;;;;;;62.80;58.22;;;16.40;92.70;;;;;;5076844;28;20560;-88
2023/08/01 07:14:51;;;;;;;64.22;59.33;;;16.40;92.70;;;;;;5075249;28;20195;-89
2023/08/01 07:17:17;;;;;;;63.25;58.72;;;16.50;92.80;;;;;;5075295;28;20203;-89
2023/08/01 07:19:43;;;;;;;63.35;58.50;;;16.60;92.90;;;;;;5076605;28;20172;-89
2023/08/01 07:22:09;;;;;;;62.67;58.35;;;16.50;92.60;;;;;;5076238;28;20553;-89
2023/08/01 07:24:34;;;;;;;61.30;56.20;;;16.70;92.80;;;;;;5077350;28;20179;-90
2023/08/01 07:27:00;;;;;;;61.28;57.13;;;16.80;92.70;;;;;;5075776;28;20179;-90
2023/08/01 07:29:25;;;;;;;62.65;58.28;;;16.90;92.60;;;;;;5076027;28;20211;-89
2023/08/01 07:31:51;;;;;;;60.67;56.35;;;17.00;92.20;;;;;;5077287;28;20183;-90
2023/08/01 07:34:16;;;;;;;63.38;59.05;;;17.10;92.30;;;;;;5075100;28;20240;-89
2023/08/01 07:36:42;;;;;;;67.65;62.65;;;17.10;91.90;;;;;;5075543;28;20294;-90
2023/08/01 07:39:07;;;;;;;63.92;59.13;;;17.10;92.10;;;;;;5075258;28;20250;-90
2023/08/01 07:41:34;;;;;;;64.60;60.30;;;17.00;91.70;;;;;;5075459;28;20175;-90
2023/08/01 07:44:03;;;;;;;65.43;60.47;;;17.00;91.80;;;;;;5075400;28;20636;-89
2023/08/01 07:46:28;;;;;;;65.40;60.78;;;17.10;91.90;;;;;;5075280;28;20726;-90
2023/08/01 07:48:54;;;;;;;65.03;60.53;;;17.00;91.80;;;;;;5075916;28;20210;-90
2023/08/01 07:51:20;;;;;;;65.80;60.55;;;17.00;91.90;;;;;;5075947;28;20573;-89
2023/08/01 07:53:45;;;;;;;61.08;56.45;;;17.00;91.40;;;;;;5076815;28;20559;-90
2023/08/01 07:56:11;;;;;;;64.22;59.20;;;17.10;90.70;;;;;;5075541;28;20229;-90
2023/08/01 07:58:36;;;;;;;85.97;80.00;;;17.40;91.00;;;;;;5074965;28;20726;-89
2023/08/01 08:01:06;;;;;;;86.40;80.15;;;17.50;90.90;;;;;;5075311;28;20248;-91
2023/08/01 08:03:31;;;;;;;58.03;53.53;;;17.30;90.40;;;;;;5075845;28;20178;-89
2023/08/01 08:05:58;;;;;;;56.95;52.70;;;17.60;90.10;;;;;;5077669;28;20270;-89
2023/08/01 08:08:23;;;;;;;64.70;60.13;;;17.60;89.80;;;;;;5074514;28;20229;-88
2023/08/01 08:10:49;;;;;;;85.65;79.50;;;17.80;90.60;;;;;;5077270;28;20565;-90
2023/08/01 08:13:14;;;;;;;82.57;76.80;;;17.90;90.20;;;;;;5076989;28;20183;-90
2023/08/01 08:15:40;;;;;;;51.33;47.83;;;18.00;89.00;;;;;;5075520;28;20221;-89
2023/08/01 08:18:06;;;;;;;51.25;47.92;;;18.00;88.50;;;;;;5075525;28;20278;-90
2023/08/01 08:20:34;;;;;;;51.53;47.63;;;17.80;88.60;;;;;;5078185;28;20175;-90
2023/08/01 08:22:59;;;;;;;58.53;54.42;;;17.60;88.90;;;;;;5078452;28;20183;-90
2023/08/01 08:25:25;;;;;;;62.80;58.72;;;17.30;89.60;;;;;;5077580;28;20191;-90
2023/08/01 08:27:50;;;;;;;71.03;66.78;;;17.20;90.10;;;;;;5076750;28;20171;-91
2023/08/01 08:30:16;;;;;;;59.03;55.15;;;17.00;90.80;;;;;;5075654;28;20179;-90
2023/08/01 08:32:42;;;;;;;58.92;54.88;;;16.80;91.50;;;;;;5076871;28;20180;-91
2023/08/01 08:35:08;;;;;;;59.97;55.95;;;16.70;91.90;;;;;;5075105;28;20196;-90
2023/08/01 08:37:33;;;;;;;60.45;56.55;;;16.70;92.50;;;;;;5075621;28;20199;-90
2023/08/01 08:39:59;;;;;;;63.00;58.50;;;16.50;92.50;;;;;;5073885;28;20167;-89
2023/08/01 08:42:24;;;;;;;64.03;59.28;;;16.40;92.60;;;;;;5073917;28;20555;-89
2023/08/01 08:44:55;;;;;;;63.13;58.30;;;16.50;93.10;;;;;;5073712;28;20198;-90
2023/08/01 08:47:25;;;;;;;64.40;60.38;;;16.50;93.20;;;;;;5075028;28;20152;-89
2023/08/01 08:49:51;;;;;;;63.13;58.95;;;16.40;93.30;;;;;;5073698;28;20274;-89
2023/08/01 08:52:18;;;;;;;63.40;59.33;;;16.30;93.30;;;;;;5075000;28;20167;-89
2023/08/01 08:54:44;;;;;;;64.68;60.45;;;16.30;93.40;;;;;;5073666;28;20678;-90
2023/08/01 08:57:10;;;;;;;66.80;62.10;;;16.40;93.40;;;;;;5073531;28;20206;-90
2023/08/01 08:59:36;;;;;;;62.83;58.70;;;16.60;93.80;;;;;;5073636;28;20666;-89
2023/08/01 09:02:04;;;;;;;61.17;57.20;;;17.00;93.90;;;;;;5074766;28;20171;-89
2023/08/01 09:04:31;;;;;;;61.47;56.42;;;17.30;93.60;;;;;;5074452;28;20195;-91
2023/08/01 09:07:01;;;;;;;58.38;54.42;;;17.40;92.70;;;;;;5074775;28;20178;-90
2023/08/01 09:09:27;;;;;;;56.50;52.63;;;17.50;92.20;;;;;;5073566;28;20258;-89
2023/08/01 09:11:56;;;;;;;61.45;56.95;;;17.70;91.80;;;;;;5074558;28;20262;-88
2023/08/01 09:14:21;;;;;;;59.30;55.35;;;17.70;92.00;;;;;;5073242;28;20302;-90
2023/08/01 09:16:48;;;;;;;63.65;59.58;;;17.80;92.00;;;;;;5074225;28;20710;-89
2023/08/01 09:19:23;;;;;;;55.20;51.55;;;18.00;92.00;;;;;;5074590;28;20168;-89
2023/08/01 09:21:49;;;;;;;54.75;51.25;;;18.20;91.10;;;;;;5072977;28;20199;-89
2023/08/01 09:24:17;;;;;;;55.90;52.20;;;18.40;90.70;;;;;;5073007;28;20245;-88
2023/08/01 09:26:44;;;;;;;52.42;48.63;;;18.50;90.30;;;;;;5073909;28;20182;-89
2023/08/01 09:29:09;;;;;;;46.10;43.10;;;18.70;89.50;;;;;;5073412;28;20665;-90
2023/08/01 09:31:40;;;;;;;51.50;47.63;;;18.50;87.70;;;;;;5073709;28;20167;-90
2023/08/01 09:34:17;;;;;;;44.85;41.83;;;18.70;88.20;;;;;;5073166;28;20592;-88
2023/08/01 09:36:42;;;;;;;42.22;39.20;;;18.70;86.20;;;;;;5073159;28;20250;-90
2023/08/01 09:39:08;;;;;;;41.78;39.08;;;18.80;85.60;;;;;;5074164;28;20254;-89
2023/08/01 09:41:33;;;;;;;40.88;37.80;;;18.70;85.10;;;;;;5073295;28;20168;-89
2023/08/01 09:43:59;;;;;;;34.58;31.90;;;19.00;85.90;;;;;;5077177;28;20175;-89
2023/08/01 09:46:25;;;;;;;33.53;31.33;;;19.00;83.60;;;;;;5074122;28;20591;-89
2023/08/01 09:48:50;;;;;;;34.70;32.38;;;19.10;82.90;;;;;;5074309;28;20167;-90
2023/08/01 09:51:17;;;;;;;33.80;31.48;;;19.30;81.60;;;;;;5073663;28;20298;-89
2023/08/01 09:53:49;;;;;;;31.63;29.33;;;19.50;83.90;;;;;;5072857;28;20199;-89
2023/08/01 09:56:23;;;;;;;32.25;30.05;;;19.50;81.70;;;;;;5073114;28;20197;-90
2023/08/01 09:58:49;;;;;;;33.38;30.95;;;19.50;81.60;;;;;;5073481;28;20254;-89
2023/08/01 10:01:17;;;;;;;27.75;25.95;;;19.10;81.30;;;;;;5074355;28;20218;-89
2023/08/01 10:03:49;;;;;;;31.30;28.95;;;18.80;80.50;;;;;;5072697;28;20797;-89
2023/08/01 10:06:19;;;;;;;30.08;27.98;;;19.30;80.70;;;;;;5073584;28;20166;-90
2023/08/01 10:08:46;;;;;;;33.00;30.33;;;19.40;80.70;;;;;;5073226;28;20170;-92
2023/08/01 10:11:14;;;;;;;29.05;27.05;;;19.20;80.00;;;;;;5074660;28;20183;-89
2023/08/01 10:13:42;;;;;;;28.23;26.33;;;18.80;80.00;;;;;;5074598;28;20186;-90
2023/08/01 10:16:08;;;;;;;26.27;24.45;;;18.20;78.70;;;;;;5072619;28;20186;-89
2023/08/01 10:18:37;;;;;;;27.48;25.67;;;17.70;83.00;;;;;;5072886;28;20241;-90
2023/08/01 10:21:04;;;;;;;28.27;26.30;;;17.00;84.80;;;;;;5072504;28;20195;-90
2023/08/01 10:23:30;;;;;;;28.55;26.80;;;16.60;86.50;;;;;;5072736;28;20175;-91
2023/08/01 10:25:56;;;;;;;28.73;26.92;;;16.30;88.20;;;;;;5072170;28;20168;-90
2023/08/01 10:28:32;;;;;;;26.95;25.25;;;16.60;88.40;;;;;;5073713;28;20597;-89
2023/08/01 10:31:16;;;;;;;28.23;26.30;;;16.60;88.90;;;;;;5072243;28;20605;-89
2023/08/01 10:33:44;;;;;;;28.17;26.17;;;16.80;89.20;;;;;;5073751;28;20225;-90
2023/08/01 10:36:15;;;;;;;28.90;27.13;;;17.00;89.60;;;;;;5072096;28;20183;-89
2023/08/01 10:38:51;;;;;;;27.45;25.75;;;17.30;89.90;;;;;;5073282;28;20252;-91
2023/08/01 10:41:22;;;;;;;25.30;23.80;;;17.30;89.60;;;;;;5077391;28;20152;-89
2023/08/01 10:43:47;;;;;;;26.02;24.35;;;17.50;89.50;;;;;;5076718;28;20294;-89
2023/08/01 10:46:13;;;;;;;29.00;27.08;;;17.30;88.80;;;;;;5076171;28;20210;-90
2023/08/01 10:48:52;;;;;;;26.40;24.60;;;17.20;88.50;;;;;;5076098;28;20186;-89
2023/08/01 10:51:18;;;;;;;26.10;24.23;;;16.80;88.00;;;;;;5076397;28;20252;-90
2023/08/01 10:53:44;;;;;;;26.13;24.30;;;16.30;88.70;;;;;;5077123;28;20195;-90
2023/08/01 10:56:17;;;;;;;28.20;26.50;;;16.00;88.50;;;;;;5076025;28;20180;-89
2023/08/01 10:58:43;;;;;;;29.10;27.40;;;15.90;89.20;;;;;;5075728;28;20293;-90
2023/08/01 11:01:08;;;;;;;28.42;26.83;;;15.60;89.70;;;;;;5077430;28;20260;-92
2023/08/01 11:03:38;;;;;;;28.00;26.45;;;15.40;90.40;;;;;;5075758;28;20186;-90
2023/08/01 11:06:04;;;;;;;28.88;27.15;;;15.40;90.70;;;;;;5076960;28;20648;-90
2023/08/01 11:08:37;;;;;;;28.85;27.17;;;15.40;91.20;;;;;;5076499;28;20572;-90
2023/08/01 11:11:08;;;;;;;29.95;28.17;;;15.30;91.00;;;;;;5076944;28;20192;-90
2023/08/01 11:13:34;;;;;;;29.02;27.35;;;15.40;91.60;;;;;;5077096;28;20155;-90
2023/08/01 11:16:05;;;;;;;29.60;27.80;;;15.60;91.80;;;;;;5075830;28;20730;-90
2023/08/01 11:18:43;;;;;;;30.27;28.42;;;15.70;92.10;;;;;;5075446;28;20286;-91
2023/08/01 11:21:08;;;;;;;26.73;25.13;;;15.90;92.30;;;;;;5077545;28;20603;-90
2023/08/01 11:23:36;;;;;;;26.35;24.52;;;16.10;92.40;;;;;;5076012;28;20164;-90
2023/08/01 11:26:09;;;;;;;25.38;23.63;;;16.30;92.60;;;;;;5076632;28;20229;-90
2023/08/01 11:28:36;;;;;;;26.73;25.20;;;16.60;92.80;;;;;;5076988;28;20218;-90
2023/08/01 11:31:11;;;;;;;28.50;26.80;;;16.60;92.40;;;;;;5076176;28;20180;-91
2023/08/01 11:33:36;;;;;;;29.75;27.60;;;16.90;92.00;;;;;;5076966;28;20634;-90
2023/08/01 11:36:03;;;;;;;26.05;24.25;;;17.50;92.10;;;;;;5075310;28;20274;-90
2023/08/01 11:38:30;;;;;;;23.55;22.05;;;17.80;91.80;;;;;;5076203;28;20195;-89
2023/08/01 11:40:57;;;;;;;26.27;24.52;;;18.00;91.30;;;;;;5076053;28;20548;-89
2023/08/01 11:43:22;;;;;;;29.55;27.80;;;18.00;90.10;;;;;;5074791;28;20171;-90
2023/08/01 11:45:54;;;;;;;27.48;25.52;;;18.20;90.20;;;;;;5075145;28;20183;-89
2023/08/01 11:48:22;;;;;;;29.92;27.92;;;18.40;89.80;;;;;;5074752;28;20167;-88
2023/08/01 11:50:47;;;;;;;29.75;28.00;;;18.10;88.20;;;;;;5075086;28;20707;-88
2023/08/01 11:53:21;;;;;;;25.50;24.00;;;18.30;89.20;;;;;;5075270;28;20221;-89
2023/08/01 11:55:47;;;;;;;25.63;24.13;;;18.50;89.20;;;;;;5074778;28;20192;-86
2023/08/01 11:58:14;;;;;;;26.45;24.67;;;18.30;88.00;;;;;;5074434;28;20291;-86
2023/08/01 12:00:40;;;;;;;27.05;25.45;;;18.10;87.40;;;;;;5075823;28;20159;-89
2023/08/01 12:03:13;;;;;;;27.25;25.55;;;18.00;88.20;;;;;;5076086;28;20168;-89
2023/08/01 12:05:45;;;;;;;30.60;28.27;;;17.80;88.40;;;;;;5075870;28;20610;-90
2023/08/01 12:08:15;;;;;;;30.77;28.88;;;17.50;88.50;;;;;;5077155;28;20599;-90
2023/08/01 12:10:42;;;;;;;33.40;31.30;;;17.20;89.20;;;;;;5075789;28;20175;-90
2023/08/01 12:13:22;;;;;;;34.35;32.35;;;17.20;89.80;;;;;;5075899;28;20176;-90
2023/08/01 12:15:49;;;;;;;34.00;32.10;;;17.20;90.00;;;;;;5075846;28;20261;-90
2023/08/01 12:18:29;;;;;;;31.50;29.48;;;16.80;89.80;;;;;;5085121;28;20209;-92
2023/08/01 12:20:54;;;;;;;30.50;28.50;;;16.20;91.20;;;;;;5098442;28;20203;-93
2023/08/01 12:23:21;;;;;;;30.27;28.42;;;16.00;91.80;;;;;;5099796;28;20218;-92